Latest Weather Observations for Douglas River

IDD60801

Issued at 9:41 am CST Thursday 23 January 2020 (issued every 10 minutes, with the page automatically refreshed every 10 minutes)

About weather observations | Map of weather stations | Latest weather observations for NT | Other Formats
Station Details ID: 014901 Name: DOUGLAS RIVER RESEARCH FARM Lat: -13.83 Lon: 131.19 Height: 42.8 m
Data from the previous 72 hours. | See also: Recent months at Douglas River
Date/Time
CST
Temp
°C
App
Temp
°C
Dew
Point
°C
Rel
Hum
%
Delta-T
°C
Wind Press
QNH
hPa
Press
MSL
hPa
Rain since
9am
mm
Dir  Spd
km/h
Gust
km/h
Spd
kts
Gust
kts
23/09:30am 28.0 31.8 23.4 76 3.2 NNW 9 17 5 9 1008.6 1008.3 0.0
23/09:00am 27.4 31.8 23.8 81 2.5 NNW 7 11 4 6 1008.8 1008.5 4.8
23/08:30am 25.6 29.8 23.1 86 1.7 N 6 11 3 6 1008.8 1008.5 4.8
23/08:00am 24.8 30.1 23.0 90 1.2 CALM 0 0 0 0 1008.6 1008.3 4.8
23/07:30am 24.2 28.9 22.6 91 1.1 N 2 6 1 3 1008.3 1008.0 4.8
23/07:00am 23.8 28.9 22.6 93 0.8 CALM 0 6 0 3 1007.9 1007.6 4.8
23/06:30am 23.6 28.5 22.4 93 0.8 CALM 0 0 0 0 1007.4 1007.1 4.8
23/06:00am 23.7 27.4 22.3 92 0.9 NNW 6 7 3 4 1007.1 1006.8 4.8
23/05:30am 23.8 27.6 22.4 92 0.9 NW 6 9 3 5 1006.8 1006.5 4.8
23/05:00am 23.7 28.4 22.7 94 0.7 NNW 2 6 1 3 1006.6 1006.3 4.8
23/04:30am 23.8 27.7 22.6 93 0.8 NE 6 9 3 5 1005.9 1005.6 4.8
23/04:00am 23.8 28.9 22.6 93 0.8 CALM 0 4 0 2 1006.1 1005.8 4.8
23/03:30am 23.9 28.9 22.5 92 0.9 CALM 0 0 0 0 1006.4 1006.1 4.8
23/03:00am 23.9 27.8 22.5 92 0.9 NNW 6 9 3 5 1006.8 1006.5 4.8
23/02:30am 23.8 27.6 22.4 92 0.9 WNW 6 9 3 5 1007.3 1007.0 4.8
23/02:00am 23.9 27.6 22.2 90 1.1 NW 6 7 3 4 1007.2 1006.9 4.8
23/01:30am 24.1 27.6 22.2 89 1.3 N 7 13 4 7 1007.4 1007.1 4.8
23/01:00am 24.5 28.1 22.4 88 1.4 NNW 7 13 4 7 1008.1 1007.8 4.8
23/12:30am 24.9 28.0 22.2 85 1.8 NW 9 13 5 7 1007.9 1007.6 4.8
23/12:00am 26.1 30.9 24.5 91 1.1 NW 7 15 4 8 1007.6 1007.3 4.8
 
Date/Time
CST
Temp
°C
App
Temp
°C
Dew
Point
°C
Rel
Hum
%
Delta-T
°C
Wind Press
QNH
hPa
Press
MSL
hPa
Rain since
9am
mm
Dir  Spd
km/h
Gust
km/h
Spd
kts
Gust
kts
22/11:30pm 26.3 31.5 25.1 93 0.8 NNW 7 11 4 6 1008.1 1007.8 4.8
22/11:00pm 26.0 31.2 24.8 93 0.8 N 6 7 3 4 1008.1 1007.8 4.8
22/10:30pm 26.0 31.6 24.8 93 0.8 N 4 7 2 4 1008.3 1008.0 4.8
22/10:00pm 26.0 31.0 24.8 93 0.8 NNW 7 9 4 5 1008.3 1008.0 4.8
22/09:30pm 25.9 30.3 24.5 92 1.0 NNW 9 11 5 6 1007.5 1007.2 4.8
22/09:00pm 26.1 30.9 24.5 91 1.1 N 7 9 4 5 1007.7 1007.4 4.8
22/08:30pm 26.2 32.3 24.4 90 1.2 CALM 0 2 0 1 1008.1 1007.8 4.8
22/08:00pm 26.3 31.0 24.3 89 1.4 NNW 7 9 4 5 1007.3 1007.0 4.8
22/07:30pm 26.6 31.5 24.4 88 1.5 NW 6 9 3 5 1007.6 1007.3 4.8
22/07:00pm 26.7 31.0 24.2 86 1.7 WNW 9 15 5 8 1006.8 1006.5 4.8
22/06:30pm 27.2 30.8 24.3 84 2.0 NW 13 20 7 11 1006.4 1006.1 4.8
22/06:00pm 27.6 30.7 24.2 82 2.4 NNW 15 26 8 14 1005.8 1005.5 4.8
22/05:30pm 27.8 30.5 24.2 81 2.5 NNW 17 24 9 13 1005.8 1005.5 4.8
22/05:00pm 28.7 32.6 24.9 80 2.7 NNW 13 20 7 11 1006.2 1005.9 4.8
22/04:30pm 28.0 30.7 24.2 80 2.6 NNW 17 26 9 14 1006.4 1006.1 4.8
22/04:00pm 28.1 31.7 24.3 80 2.6 NNW 13 20 7 11 1006.6 1006.3 4.8
22/03:30pm 28.0 31.9 24.8 83 2.2 NW 13 24 7 13 1006.7 1006.4 4.8
22/03:00pm 27.2 30.8 24.3 84 2.0 NNW 13 19 7 10 1007.1 1006.8 4.8
22/02:30pm 27.0 31.6 24.8 88 1.5 NW 9 24 5 13 1007.8 1007.5 4.8
22/02:00pm 26.4 30.1 24.6 90 1.2 NW 13 20 7 11 1008.2 1007.9 4.8
22/01:30pm 26.1 29.4 24.5 91 1.1 NNW 15 26 8 14 1008.5 1008.2 4.6
22/01:00pm 25.9 30.0 24.5 92 1.0 NNW 11 17 6 9 1008.9 1008.6 4.6
22/12:30pm 25.1 28.4 23.9 93 0.8 NNW 13 17 7 9 1009.5 1009.2 4.6
22/12:00pm 24.6 27.7 23.6 94 0.7 NNW 13 20 7 11 1010.0 1009.7 4.4
22/11:30am 24.3 27.7 23.3 94 0.7 NNW 11 17 6 9 1010.2 1009.9 3.8
22/11:00am 24.0 27.2 23.0 94 0.7 NNW 11 17 6 9 1010.3 1010.0 3.4
22/10:30am 24.1 27.0 23.1 94 0.7 NNW 13 17 7 9 1010.4 1010.1 2.8
22/10:00am 24.2 27.1 23.2 94 0.7 NNW 13 17 7 9 1010.4 1010.1 2.0
22/09:30am 24.3 28.0 23.3 94 0.7 NNW 9 15 5 8 1010.1 1009.8 1.2
22/09:00am 24.1 27.8 23.2 95 0.6 NNW 9 11 5 6 1009.5 1009.2 39.6
22/08:30am 24.0 27.6 23.1 95 0.6 NNW 9 13 5 7 1009.3 1009.0 38.6
22/08:00am 23.9 27.1 23.0 95 0.6 NNW 11 19 6 10 1009.2 1008.9 37.6
22/07:30am 23.8 27.6 22.8 94 0.7 NNW 7 11 4 6 1009.1 1008.8 36.6
22/07:00am 23.7 27.5 22.7 94 0.7 N 7 11 4 6 1008.7 1008.4 36.2
22/06:30am 23.6 27.3 22.6 94 0.7 N 7 11 4 6 1008.2 1007.9 36.2
22/06:00am 23.4 26.6 22.4 94 0.7 NW 9 15 5 8 1007.9 1007.6 36.0
22/05:30am 23.4 27.0 22.4 94 0.7 NNW 7 13 4 7 1007.6 1007.3 36.0
22/05:00am 23.5 27.2 22.5 94 0.7 NW 7 11 4 6 1007.3 1007.0 36.0
22/04:30am 23.6 27.3 22.6 94 0.7 WNW 7 11 4 6 1007.5 1007.2 35.4
22/04:00am 23.6 26.1 22.4 93 0.8 WNW 13 19 7 10 1007.5 1007.2 35.0
22/03:30am 23.9 25.1 22.5 92 0.9 W 20 33 11 18 1007.5 1007.2 34.4
22/03:00am 24.9 26.4 23.1 90 1.2 WNW 20 44 11 24 1007.4 1007.1 30.2
22/02:30am 25.4 30.2 24.4 94 0.7 NNW 7 11 4 6 1007.2 1006.9 28.6
22/02:00am 25.3 29.9 24.1 93 0.8 NNW 7 15 4 8 1007.6 1007.3 23.4
22/01:30am 25.4 29.5 24.0 92 1.0 NNW 9 15 5 8 1007.5 1007.2 22.2
22/01:00am 25.6 29.0 24.0 91 1.1 NNW 13 20 7 11 1008.3 1008.0 22.0
22/12:30am 25.0 30.1 23.4 91 1.1 N 2 9 1 5 1008.8 1008.5 22.0
22/12:00am 25.1 28.8 23.3 90 1.2 N 9 13 5 7 1009.0 1008.7 22.0
 
Date/Time
CST
Temp
°C
App
Temp
°C
Dew
Point
°C
Rel
Hum
%
Delta-T
°C
Wind Press
QNH
hPa
Press
MSL
hPa
Rain since
9am
mm
Dir  Spd
km/h
Gust
km/h
Spd
kts
Gust
kts
21/11:30pm 25.2 29.5 23.6 91 1.1 NNW 7 11 4 6 1009.3 1009.0 22.0
21/11:00pm 25.2 29.8 23.8 92 1.0 N 6 11 3 6 1009.3 1009.0 22.0
21/10:30pm 25.3 28.9 23.7 91 1.1 NNW 11 17 6 9 1009.2 1008.9 22.0
21/10:00pm 25.4 28.8 24.0 92 1.0 NW 13 24 7 13 1009.0 1008.7 22.0
21/09:30pm 25.1 29.6 23.9 93 0.8 NNW 7 11 4 6 1008.5 1008.2 22.0
21/09:00pm 25.1 29.2 23.9 93 0.8 NNW 9 13 5 7 1008.2 1007.9 21.8
21/08:30pm 25.0 28.6 23.8 93 0.8 NNW 11 17 6 9 1008.3 1008.0 21.8
21/08:00pm 25.0 28.3 23.8 93 0.8 NNW 13 20 7 11 1008.3 1008.0 21.6
21/07:30pm 25.1 28.9 24.1 94 0.7 NNW 11 20 6 11 1007.8 1007.5 21.6
21/07:00pm 24.9 29.4 23.9 94 0.7 NNW 7 11 4 6 1007.4 1007.1 20.8
21/06:30pm 25.1 29.2 23.9 93 0.8 NW 9 19 5 10 1007.6 1007.3 11.0
21/06:00pm 25.1 29.2 23.9 93 0.8 NNW 9 13 5 7 1007.2 1006.9 8.8
21/05:30pm 25.2 28.8 23.8 92 1.0 NNW 11 15 6 8 1006.9 1006.6 8.6
21/05:00pm 25.4 28.5 23.6 90 1.2 NNW 13 17 7 9 1007.2 1006.9 7.6
21/04:30pm 25.2 28.8 23.8 92 1.0 NNW 11 17 6 9 1007.0 1006.7 7.6
21/04:00pm 24.7 27.7 23.3 92 1.0 NNW 13 22 7 12 1007.3 1007.0 7.4
21/03:30pm 24.4 26.9 23.2 93 0.8 NNW 15 26 8 14 1007.8 1007.5 7.0
21/03:00pm 24.7 26.5 23.3 92 1.0 NNW 19 28 10 15 1008.1 1007.8 5.2
21/02:30pm 25.7 26.8 23.0 85 1.8 WNW 22 52 12 28 1008.4 1008.1 2.8
21/02:00pm 30.4 31.3 22.0 60 5.7 NNW 20 32 11 17 1007.5 1007.2 0.2
21/01:30pm 30.2 31.0 22.4 63 5.3 NNW 22 43 12 23 1008.1 1007.8 0.2
21/01:00pm 29.1 31.6 23.8 73 3.7 NW 17 28 9 15 1008.8 1008.5 0.2
21/12:30pm 30.2 32.7 23.1 65 4.9 NNW 15 28 8 15 1009.3 1009.0 0.2
21/12:00pm 29.6 29.7 21.8 63 5.3 NNW 24 37 13 20 1009.9 1009.6 0.2
21/11:30am 30.5 33.0 23.2 65 5.0 NNW 15 24 8 13 1010.2 1009.9 0.2
21/11:00am 29.6 31.0 22.8 67 4.6 NNW 20 30 11 16 1010.7 1010.4 0.0
21/10:30am 29.0 30.9 23.7 73 3.7 NNW 20 35 11 19 1010.8 1010.5 0.0
21/10:00am 27.8 31.2 23.4 77 3.0 NNW 11 19 6 10 1011.0 1010.7 0.0
21/09:30am 27.2 30.8 23.0 78 2.9 NW 9 17 5 9 1010.9 1010.6 0.0
21/09:00am 26.2 29.1 23.1 83 2.1 NW 13 26 7 14 1011.4 1011.1 2.4
21/08:30am 26.4 30.0 23.7 85 1.9 NNW 11 19 6 10 1011.2 1010.9 2.4
21/08:00am 25.7 30.7 23.9 90 1.2 N 4 7 2 4 1010.2 1009.9 2.4
21/07:30am 25.0 30.0 23.8 93 0.8 N 4 7 2 4 1009.9 1009.6 2.4
21/07:00am 24.3 29.4 23.3 94 0.7 N 2 6 1 3 1009.4 1009.1 2.4
21/06:30am 23.9 28.4 22.9 94 0.7 NNE 4 7 2 4 1009.0 1008.7 2.4
21/06:00am 24.1 29.4 23.1 94 0.7 CALM 0 0 0 0 1009.0 1008.7 2.4
21/05:30am 23.7 27.6 22.5 93 0.8 WNW 6 17 3 9 1008.5 1008.2 2.4
21/05:00am 23.7 28.6 22.3 92 0.9 CALM 0 0 0 0 1008.1 1007.8 0.8
21/04:30am 23.6 28.4 22.2 92 0.9 CALM 0 0 0 0 1008.2 1007.9 0.8
21/04:00am 23.8 28.6 22.1 90 1.1 CALM 0 0 0 0 1008.4 1008.1 0.8
21/03:30am 24.1 28.8 22.0 88 1.4 CALM 0 0 0 0 1008.1 1007.8 0.8
21/03:00am 24.2 28.8 21.7 86 1.7 CALM 0 0 0 0 1008.3 1008.0 0.8
21/02:30am 24.7 27.8 21.0 80 2.4 NNW 6 9 3 5 1008.3 1008.0 0.8
21/02:00am 25.4 29.0 22.3 83 2.1 NNW 7 11 4 6 1008.8 1008.5 0.8
21/01:30am 25.8 31.8 24.2 91 1.1 CALM 0 7 0 4 1009.2 1008.9 0.8
21/01:00am 26.0 31.2 24.2 90 1.2 NNW 4 7 2 4 1009.3 1009.0 0.8
21/12:30am 25.8 30.6 24.2 91 1.1 N 6 11 3 6 1009.0 1008.7 0.8
21/12:00am 25.6 30.4 24.2 92 1.0 N 6 7 3 4 1009.4 1009.1 0.8
 
Date/Time
CST
Temp
°C
App
Temp
°C
Dew
Point
°C
Rel
Hum
%
Delta-T
°C
Wind Press
QNH
hPa
Press
MSL
hPa
Rain since
9am
mm
Dir  Spd
km/h
Gust
km/h
Spd
kts
Gust
kts
20/11:30pm 25.7 31.0 24.3 92 1.0 NE 4 6 2 3 1009.7 1009.4 0.8
20/11:00pm 25.8 31.9 24.4 92 1.0 CALM 0 0 0 0 1009.9 1009.6 0.8
20/10:30pm 25.9 32.0 24.5 92 1.0 CALM 0 0 0 0 1009.9 1009.6 0.8
20/10:00pm 25.9 30.9 24.5 92 1.0 NNE 6 9 3 5 1009.6 1009.3 0.6
20/09:30pm 26.0 31.2 24.8 93 0.8 NE 6 7 3 4 1009.4 1009.1 0.6
20/09:00pm 25.9 31.8 24.1 90 1.2 CALM 0 0 0 0 1009.3 1009.0 0.6
20/08:30pm 26.2 32.0 24.6 91 1.1 SW 2 6 1 3 1009.2 1008.9 0.6
20/08:00pm 26.2 31.1 24.6 91 1.1 W 7 9 4 5 1008.7 1008.4 0.6
20/07:30pm 26.8 31.1 24.3 86 1.7 NW 9 13 5 7 1008.3 1008.0 0.4
20/07:00pm 27.1 31.7 24.2 84 2.0 NW 7 15 4 8 1008.1 1007.8 0.0
20/06:30pm 27.4 31.3 24.3 83 2.2 NW 11 17 6 9 1007.2 1006.9 0.0
20/06:00pm 27.2 30.4 24.3 84 2.0 NNW 15 20 8 11 1006.6 1006.3 0.0
20/05:30pm 27.5 30.7 24.4 83 2.2 NW 15 26 8 14 1006.8 1006.5 0.0
20/05:00pm 29.0 31.6 23.9 74 3.5 NW 17 22 9 12 1006.5 1006.2 0.0
20/04:30pm 28.3 32.0 24.5 80 2.7 WNW 13 19 7 10 1006.6 1006.3 0.0
20/04:00pm 27.2 31.4 24.7 86 1.7 NW 11 20 6 11 1006.6 1006.3 0.0
20/03:30pm 26.3 29.4 24.2 88 1.5 WNW 15 26 8 14 1006.9 1006.6 0.0
20/03:06pm 27.6 27.6 23.0 76 3.1 WNW 28 54 15 29 1007.3 1007.0 0.0
20/03:00pm 29.6 30.9 23.3 69 4.3 WNW 22 54 12 29 1007.0 1006.7 0.0
20/02:30pm 30.4 32.2 23.6 67 4.7 W 20 30 11 16 1007.0 1006.7 0.0
20/02:00pm 30.1 32.5 24.3 71 4.0 WSW 19 28 10 15 1007.2 1006.9 0.0
20/01:30pm 30.9 31.6 23.0 62 5.4 W 24 37 13 20 1007.4 1007.1 0.0
20/01:00pm 30.5 32.2 24.6 70 4.1 NW 24 39 13 21 1007.9 1007.6 0.0
20/12:30pm 30.6 32.5 23.5 66 4.9 NW 19 35 10 19 1008.3 1008.0 0.0
20/12:00pm 31.4 33.6 24.0 65 5.2 NW 19 28 10 15 1008.6 1008.3 0.0
20/11:30am 31.2 33.0 23.3 63 5.5 WNW 19 30 10 16 1009.0 1008.7 0.0
20/11:00am 31.7 33.9 24.0 63 5.4 W 19 32 10 17 1009.1 1008.8 0.0
20/10:30am 30.6 34.0 24.0 68 4.6 NNW 13 22 7 12 1009.1 1008.8 0.0
20/10:00am 30.2 32.9 24.1 70 4.2 WNW 17 26 9 14 1009.5 1009.2 0.0

Other formats

Comma delimited format used in spreadsheet applications
http://www.bom.gov.au/fwo/IDD60801/IDD60801.94128.axf

JavaScript Object Notation format (JSON) in row-major order
http://www.bom.gov.au/fwo/IDD60801/IDD60801.94128.json

Data quality

Most of these data are generated automatically and are frequently updated. Quality checks on data are not normally performed. It is possible for incorrect values to appear. Refer to information at About Latest Weather Observations and please check the disclaimer before using these data.